Time;durP1;ratioP1;P1;durP2;ratioP2;P2;SDS_P1;SDS_P2;PMS_P1;PMS_P2;Temp;Humidity;BMP_temperature;BMP_pressure;BME280_temperature;BME280_humidity;BME280_pressure;Samples;Min_cycle;Max_cycle;Signal;HPM_P1;HPM_P2
2023/05/03 00:07:44;;;;;;;;;;;;;;;;;;;;;
2023/05/03 00:11:34;;;;;;;6.90;4.00;;;7.10;99.90;;;;;;4812328;29;20606;-83
2023/05/03 00:14:23;;;;;;;8.52;4.10;;;;;;;;;;4809066;29;20429;-83
2023/05/03 00:17:02;;;;;;;8.13;4.10;;;;;;;;;;4806882;29;20422;-83
2023/05/03 00:19:35;;;;;;;8.73;4.00;;;;;;;;;;4885110;28;20443;-83
2023/05/03 00:26:40;;;;;;;;;;;;;;;;;;;;;
2023/05/03 00:32:17;;;;;;;8.18;3.92;;;;;;;;;;5012764;28;20455;-82
2023/05/03 00:35:02;;;;;;;9.27;3.95;;;;;;;;;;5014900;28;20404;-82
2023/05/03 00:38:13;;;;;;;10.20;4.45;;;;;;;;;;5020119;28;20468;-82
2023/05/03 00:44:29;;;;;;;7.45;4.10;;;;;;;;;;5073877;28;20406;-82
2023/05/03 00:47:14;;;;;;;9.88;4.13;;;;;;;;;;5041339;28;20482;-82
2023/05/03 00:50:10;;;;;;;6.75;3.92;;;;;;;;;;5012653;28;20419;-82
2023/05/03 00:53:34;;;;;;;;;;;;;;;;;;;;;
2023/05/03 01:00:16;;;;;;;7.40;4.05;;;;;;;;;;4992975;28;20474;-82
2023/05/03 01:09:57;;;;;;;8.93;4.30;;;;;;;;;;4933645;29;20449;-82
2023/05/03 01:13:13;;;;;;;8.38;4.28;;;;;;;;;;4910199;29;20428;-82
2023/05/03 01:15:54;;;;;;;8.25;4.40;;;;;;;;;;4863867;29;21032;-82
2023/05/03 01:22:31;;;;;;;;;;;;;;;;;;;;;
2023/05/03 01:26:14;;;;;;;;;;;;;;;;;;;;;
2023/05/03 01:28:59;;;;;;;8.68;4.30;;;;;;;;;;4746968;30;20454;-82
2023/05/03 01:42:39;;;;;;;10.90;4.85;;;;;;;;;;4813114;29;20453;-83
2023/05/03 01:45:14;;;;;;;9.00;4.03;;;;;;;;;;4821837;29;20444;-82
2023/05/03 01:51:43;;;;;;;7.15;4.50;;;6.30;99.90;;;;;;4876780;29;20862;-83
2023/05/03 01:57:43;;;;;;;8.70;4.65;;;;;;;;;;4885353;29;20434;-83
2023/05/03 02:00:21;;;;;;;8.35;4.50;;;;;;;;;;4888128;29;20491;-83
2023/05/03 02:03:26;;;;;;;;;;;;;;;;;;;;;
2023/05/03 02:06:01;;;;;;;8.93;4.40;;;;;;;;;;4974795;28;20448;-83
2023/05/03 02:08:27;;;;;;;8.50;4.70;;;;;;;;;;4980795;28;20479;-82
2023/05/03 02:10:54;;;;;;;9.52;4.93;;;;;;;;;;5030935;28;20463;-83
2023/05/03 02:13:23;;;;;;;9.75;4.78;;;;;;;;;;4981725;28;20443;-83
2023/05/03 02:16:12;;;;;;;9.40;4.63;;;;;;;;;;5012739;28;20417;-81
2023/05/03 02:19:01;;;;;;;8.75;4.65;;;;;;;;;;5010092;28;20915;-83
2023/05/03 02:22:32;;;;;;;8.05;4.38;;;;;;;;;;4927953;29;20424;-81
2023/05/03 02:28:20;;;;;;;8.77;4.97;;;;;;;;;;4982495;28;20488;-84
2023/05/03 02:31:28;;;;;;;9.75;5.07;;;5.70;99.90;;;;;;4995344;28;20921;-84
2023/05/03 02:34:15;;;;;;;9.53;5.00;;;;;;;;;;4978733;28;20439;-84
2023/05/03 02:40:01;;;;;;;7.88;4.95;;;;;;;;;;4926211;29;20942;-83
2023/05/03 02:42:51;;;;;;;9.57;5.20;;;;;;;;;;4932344;28;20460;-83
2023/05/03 02:45:45;;;;;;;8.47;4.63;;;;;;;;;;4952579;28;20919;-81
2023/05/03 02:48:34;;;;;;;10.30;4.88;;;;;;;;;;4939643;28;20424;-82
2023/05/03 02:54:20;;;;;;;7.82;4.70;;;;;;;;;;4928337;29;20510;-81
2023/05/03 03:00:14;;;;;;;10.07;4.80;;;;;;;;;;4961089;28;20503;-82
2023/05/03 03:02:49;;;;;;;10.73;4.95;;;;;;;;;;5013682;28;20411;-82
2023/05/03 03:05:20;;;;;;;9.45;5.10;;;;;;;;;;4998946;28;20399;-82
2023/05/03 03:07:57;;;;;;;8.90;4.78;;;;;;;;;;4977891;28;20446;-83
2023/05/03 03:10:35;;;;;;;8.30;4.50;;;;;;;;;;4987204;28;20485;-82
2023/05/03 03:13:15;;;;;;;9.88;4.90;;;;;;;;;;4965666;28;20406;-82
2023/05/03 03:16:02;;;;;;;8.57;5.03;;;;;;;;;;4988031;28;20427;-82
2023/05/03 03:19:08;;;;;;;8.52;5.00;;;5.90;99.90;;;;;;4994791;28;20433;-83
2023/05/03 03:22:36;;;;;;;7.32;4.53;;;6.00;99.90;;;;;;4981332;28;20399;-83
2023/05/03 03:25:20;;;;;;;7.97;4.97;;;;;;;;;;4998858;28;20403;-82
2023/05/03 03:28:17;;;;;;;7.70;4.78;;;;;;;;;;5031833;28;20432;-83
2023/05/03 03:44:27;;;;;;;9.18;4.70;;;;;;;;;;5008569;28;20419;-83
2023/05/03 03:47:11;;;;;;;8.07;4.90;;;;;;;;;;4931946;29;20416;-83
2023/05/03 03:57:49;;;;;;;8.23;5.10;;;;;;;;;;4913782;29;20919;-83
2023/05/03 04:01:25;;;;;;;8.65;5.05;;;6.20;99.90;;;;;;4881893;29;20424;-83
2023/05/03 04:07:38;;;;;;;;;;;;;;;;;;;;;
2023/05/03 04:10:28;;;;;;;9.18;5.38;;;;;;;;;;4881139;29;20449;-82
2023/05/03 04:13:15;;;;;;;9.68;5.13;;;;;;;;;;4885578;29;20491;-83
2023/05/03 04:20:11;;;;;;;8.30;5.50;;;;;;;;;;4901931;29;20459;-83
2023/05/03 04:26:45;;;;;;;9.02;5.55;;;;;;;;;;4956069;29;20898;-82
2023/05/03 04:29:12;;;;;;;7.88;5.13;;;;;;;;;;4939652;29;20499;-81
2023/05/03 04:32:22;;;;;;;9.20;5.05;;;;;;;;;;4926795;29;20439;-78
2023/05/03 04:41:56;;;;;;;9.48;5.43;;;;;;;;;;4991259;28;20378;-82
2023/05/03 04:51:47;;;;;;;9.02;5.20;;;;;;;;;;4957378;28;20457;-83
2023/05/03 04:54:48;;;;;;;7.50;5.00;;;;;;;;;;4955405;28;20905;-83
2023/05/03 05:18:34;;;;;;;10.02;5.47;;;;;;;;;;4843706;29;20449;-80
2023/05/03 05:21:14;;;;;;;9.68;5.32;;;;;;;;;;4823596;29;20457;-82
2023/05/03 05:24:07;;;;;;;9.70;4.73;;;;;;;;;;4840889;29;20911;-82
2023/05/03 05:30:28;;;;;;;8.20;4.80;;;;;;;;;;4877467;29;20457;-83
2023/05/03 05:33:00;;;;;;;11.27;4.50;;;;;;;;;;4929192;28;20417;-83
2023/05/03 05:35:26;;;;;;;9.50;4.40;;;;;;;;;;4938737;28;20919;-82
2023/05/03 05:37:52;;;;;;;7.43;4.10;;;;;;;;;;4996121;28;20423;-81
2023/05/03 05:40:22;;;;;;;9.73;4.50;;;;;;;;;;4989460;28;20953;-81
2023/05/03 05:42:51;;;;;;;11.35;4.75;;;;;;;;;;4986556;28;20479;-82
2023/05/03 05:45:17;;;;;;;9.85;4.60;;;;;;;;;;5002111;28;20411;-81
2023/05/03 05:47:44;;;;;;;7.40;4.05;;;;;;;;;;4988879;28;20423;-82
2023/05/03 05:50:10;;;;;;;6.53;4.00;;;;;;;;;;5031900;28;20431;-82
2023/05/03 05:52:36;;;;;;;7.63;4.20;;;;;;;;;;5016435;28;20409;-82
2023/05/03 05:55:02;;;;;;;9.03;4.17;;;;;;;;;;5031500;28;20503;-80
2023/05/03 05:57:38;;;;;;;8.20;3.90;;;;;;;;;;5030974;28;20417;-77
2023/05/03 06:00:13;;;;;;;6.63;3.57;;;;;;;;;;5043239;28;20433;-81
2023/05/03 06:02:47;;;;;;;6.93;3.30;;;;;;;;;;5027140;28;20897;-80
2023/05/03 06:05:25;;;;;;;7.03;3.20;;;;;;;;;;4991315;28;20891;-82
2023/05/03 06:08:09;;;;;;;5.47;3.03;;;;;;;;;;5031672;28;20422;-81
2023/05/03 06:10:35;;;;;;;6.45;3.13;;;;;;;;;;5023951;28;20448;-80
2023/05/03 06:13:02;;;;;;;5.88;3.20;;;;;;;;;;5050135;28;20460;-80
2023/05/03 06:15:35;;;;;;;5.95;3.28;;;;;;;;;;5060010;28;20419;-79
2023/05/03 06:18:03;;;;;;;7.28;3.92;;;;;;;;;;5038021;28;20424;-80
2023/05/03 06:20:29;;;;;;;7.05;4.18;;;;;;;;;;5058719;28;20441;-76
2023/05/03 06:22:55;;;;;;;10.65;4.30;;;;;;;;;;5058359;28;20497;-80
2023/05/03 06:25:24;;;;;;;7.33;3.90;;;;;;;;;;5058627;28;20763;-80
2023/05/03 06:27:50;;;;;;;6.30;3.63;;;;;;;;;;5058781;28;20424;-81
2023/05/03 06:30:22;;;;;;;11.02;3.53;;;;;;;;;;5054573;28;20418;-81
2023/05/03 06:32:57;;;;;;;5.43;2.10;;;;;;;;;;5074249;28;20402;-80
2023/05/03 06:35:23;;;;;;;5.88;2.30;;;;;;;;;;5035613;28;20421;-81
2023/05/03 06:37:50;;;;;;;4.65;2.10;;;;;;;;;;5053006;28;20468;-80
2023/05/03 06:40:47;;;;;;;3.97;1.63;;;;;;;;;;5071885;28;20714;-80
2023/05/03 06:43:17;;;;;;;6.68;2.15;;;;;;;;;;5053199;28;20513;-80
2023/05/03 06:46:08;;;;;;;4.80;1.90;;;;;;;;;;5075671;28;20403;-80
2023/05/03 06:48:43;;;;;;;4.03;1.90;;;;;;;;;;5072244;28;20532;-79
2023/05/03 06:51:26;;;;;;;5.95;2.30;;;;;;;;;;5036316;28;20934;-80
2023/05/03 06:53:52;;;;;;;4.30;1.80;;;;;;;;;;5050889;28;20424;-79
2023/05/03 06:56:34;;;;;;;6.20;2.03;;;;;;;;;;5028207;28;20443;-78
2023/05/03 06:59:07;;;;;;;3.60;1.70;;;;;;;;;;5000091;28;20426;-79
2023/05/03 07:01:33;;;;;;;6.20;1.70;;;;;;;;;;5022373;28;20422;-78
2023/05/03 07:04:00;;;;;;;5.90;1.70;;;;;;;;;;5008053;28;20415;-79
2023/05/03 07:06:26;;;;;;;3.53;1.60;;;;;;;;;;5008504;28;20474;-79
2023/05/03 07:09:00;;;;;;;5.05;1.70;;;;;;;;;;5011145;28;20433;-79
2023/05/03 07:11:38;;;;;;;4.30;1.52;;;;;;;;;;5010033;28;21024;-79
2023/05/03 07:14:04;;;;;;;6.53;1.70;;;;;;;;;;4991880;28;20437;-79
2023/05/03 07:16:30;;;;;;;4.67;1.43;;;;;;;;;;5009765;28;20490;-78
2023/05/03 07:18:56;;;;;;;7.18;1.50;;;;;;;;;;5009650;28;20460;-81
2023/05/03 07:21:22;;;;;;;3.35;1.50;;;;;;;;;;5012584;28;20419;-80
2023/05/03 07:23:49;;;;;;;4.00;1.50;;;;;;;;;;4978913;28;20420;-79
2023/05/03 07:26:15;;;;;;;2.97;1.30;;;;;;;;;;5010214;28;20417;-81
2023/05/03 07:28:41;;;;;;;2.75;1.20;;;;;;;;;;5047623;28;20423;-78
2023/05/03 07:31:07;;;;;;;4.13;1.35;;;;;;;;;;5050437;28;20439;-79
2023/05/03 07:33:36;;;;;;;4.70;1.50;;;;;;;;;;5050468;28;20452;-79
2023/05/03 07:36:04;;;;;;;5.22;1.50;;;;;;;;;;5055510;28;20417;-78
2023/05/03 07:38:32;;;;;;;3.60;1.40;;;;;;;;;;5040456;28;20425;-80
2023/05/03 07:40:59;;;;;;;4.13;1.40;;;;;;;;;;5040608;28;20406;-80
2023/05/03 07:43:32;;;;;;;3.85;1.40;;;;;;;;;;5052368;28;20428;-81
2023/05/03 07:45:58;;;;;;;3.22;1.33;;;;;;;;;;5077852;28;20440;-81
2023/05/03 07:48:26;;;;;;;3.67;1.30;;;;;;;;;;5072245;28;20418;-82
2023/05/03 07:50:52;;;;;;;3.97;1.40;;;;;;;;;;5060180;28;20417;-80
2023/05/03 07:53:18;;;;;;;3.92;1.50;;;;;;;;;;5056374;28;20418;-81
2023/05/03 07:55:44;;;;;;;4.30;1.42;;;;;;;;;;5038584;28;20487;-78
2023/05/03 07:58:10;;;;;;;3.90;1.50;;;;;;;;;;5058048;28;20416;-81
2023/05/03 08:00:39;;;;;;;4.50;1.50;;;;;;;;;;5046853;28;20911;-81
2023/05/03 08:03:06;;;;;;;5.03;1.50;;;;;;;;;;5054989;28;20502;-81
2023/05/03 08:05:34;;;;;;;4.85;1.40;;;;;;;;;;5060614;28;20414;-80
2023/05/03 08:08:02;;;;;;;3.30;1.40;;;;;;;;;;5042841;28;20416;-79
2023/05/03 08:10:29;;;;;;;5.22;1.60;;;;;;;;;;5062252;28;20889;-80
2023/05/03 08:12:55;;;;;;;4.70;1.50;;;;;;;;;;5057929;28;20504;-81
2023/05/03 08:15:21;;;;;;;4.68;1.70;;;;;;;;;;5043145;28;20422;-81
2023/05/03 08:17:48;;;;;;;5.90;1.48;;;;;;;;;;5057111;28;20423;-81
2023/05/03 08:20:17;;;;;;;5.10;1.50;;;;;;;;;;5060110;28;20422;-81
2023/05/03 08:22:45;;;;;;;4.15;1.55;;;;;;;;;;5062021;28;20542;-82
2023/05/03 08:25:11;;;;;;;3.75;1.48;;;;;;;;;;5060323;28;20492;-82
2023/05/03 08:27:38;;;;;;;4.85;1.70;;;;;;;;;;5062223;28;20396;-82
2023/05/03 08:30:05;;;;;;;4.85;1.63;;;;;;;;;;5063747;28;20410;-82
2023/05/03 08:32:32;;;;;;;5.95;1.50;;;;;;;;;;5060268;28;20992;-82
2023/05/03 08:35:00;;;;;;;4.35;1.42;;;;;;;;;;5045749;28;20466;-79
2023/05/03 08:37:26;;;;;;;7.20;2.20;;;;;;;;;;5054467;28;20843;-82
2023/05/03 08:39:53;;;;;;;5.22;1.58;;;;;;;;;;5056127;28;20417;-81
2023/05/03 08:42:19;;;;;;;3.95;1.63;;;;;;;;;;5058015;28;20425;-82
2023/05/03 08:44:51;;;;;;;5.03;1.50;;;;;;;;;;5062375;28;20440;-79
2023/05/03 08:47:17;;;;;;;4.22;1.35;;;;;;;;;;5057489;28;20414;-82
2023/05/03 08:49:46;;;;;;;3.55;1.33;;;;;;;;;;5072428;28;20506;-82
2023/05/03 08:52:17;;;;;;;4.43;1.52;;;;;;;;;;5078131;28;20422;-82
2023/05/03 08:54:43;;;;;;;3.55;1.42;;;;;;;;;;5064746;28;20423;-82
2023/05/03 08:57:14;;;;;;;4.22;1.60;;;;;;;;;;5041120;28;20420;-82
2023/05/03 08:59:53;;;;;;;3.88;1.60;;;;;;;;;;5077130;28;20489;-81
2023/05/03 09:02:23;;;;;;;4.35;1.40;;;;;;;;;;5067050;28;20416;-81
2023/05/03 09:04:57;;;;;;;3.40;1.40;;;;;;;;;;5056439;28;20420;-81
2023/05/03 09:07:25;;;;;;;3.67;1.40;;;;;;;;;;5032868;28;20910;-82
2023/05/03 09:10:04;;;;;;;3.30;1.40;;;;;;;;;;5075822;28;20418;-81
2023/05/03 09:12:39;;;;;;;3.90;1.40;;;;;;;;;;5073525;28;20828;-80
2023/05/03 09:15:06;;;;;;;4.28;1.40;;;;;;;;;;5060877;28;20413;-80
2023/05/03 09:17:32;;;;;;;3.20;1.40;;;;;;;;;;5068225;28;20479;-80
2023/05/03 09:19:59;;;;;;;4.75;1.50;;;;;;;;;;5074980;28;20429;-78
2023/05/03 09:22:30;;;;;;;3.88;1.40;;;;;;;;;;5060874;28;20481;-82
2023/05/03 09:24:58;;;;;;;3.55;1.50;;;;;;;;;;5076669;28;20508;-81
2023/05/03 09:27:24;;;;;;;3.15;1.40;;;;;;;;;;5067244;28;20487;-81
2023/05/03 09:29:51;;;;;;;5.32;1.55;;;;;;;;;;5078306;28;20710;-81
2023/05/03 09:32:18;;;;;;;4.18;1.50;;;;;;;;;;5060195;28;20413;-81
2023/05/03 09:34:44;;;;;;;4.13;1.67;;;;;;;;;;5051843;28;20479;-81
2023/05/03 09:37:12;;;;;;;4.18;1.80;;;;;;;;;;5069727;28;20421;-82
2023/05/03 09:39:40;;;;;;;4.43;1.30;;;;;;;;;;5056870;28;20429;-82
2023/05/03 09:42:16;;;;;;;4.75;1.65;;;;;;;;;;5072666;28;20410;-83
2023/05/03 09:44:43;;;;;;;4.38;1.48;;;;;;;;;;5068338;28;20418;-82
2023/05/03 09:47:10;;;;;;;4.15;1.65;;;;;;;;;;5073739;28;20452;-81
2023/05/03 09:49:36;;;;;;;4.85;1.60;;;;;;;;;;5088442;28;20957;-81
2023/05/03 09:52:03;;;;;;;3.00;1.45;;;;;;;;;;5050992;28;20505;-81
2023/05/03 09:54:34;;;;;;;4.13;1.40;;;;;;;;;;5056946;28;20431;-81
2023/05/03 09:57:17;;;;;;;3.00;1.52;;;;;;;;;;5072703;28;20425;-82
2023/05/03 09:59:55;;;;;;;4.70;1.40;;;;;;;;;;5056815;28;20425;-81
2023/05/03 10:02:22;;;;;;;3.30;1.42;;;;;;;;;;5049410;28;20495;-82
2023/05/03 10:04:55;;;;;;;4.83;1.60;;;;;;;;;;5051898;28;20414;-81
2023/05/03 10:07:40;;;;;;;2.88;1.50;;;;;;;;;;5054770;28;20418;-82
2023/05/03 10:10:06;;;;;;;3.72;1.52;;;;;;;;;;5042553;28;20446;-81
2023/05/03 10:12:35;;;;;;;7.35;1.52;;;;;;;;;;5056583;28;20414;-81
2023/05/03 10:15:03;;;;;;;5.15;1.40;;;;;;;;;;5054517;28;20991;-81
2023/05/03 10:17:32;;;;;;;4.30;1.38;;;;;;;;;;5056659;28;20428;-82
2023/05/03 10:20:08;;;;;;;3.25;1.30;;;;;;;;;;5068352;28;20422;-82
2023/05/03 10:22:54;;;;;;;3.67;1.50;;;;;;;;;;5045123;28;20507;-81
2023/05/03 10:25:21;;;;;;;4.35;1.50;;;;;;;;;;5055706;28;20466;-81
2023/05/03 10:27:47;;;;;;;3.90;1.35;;;;;;;;;;5055772;28;20410;-81
2023/05/03 10:30:25;;;;;;;5.68;1.52;;;;;;;;;;5058404;28;20476;-82
2023/05/03 10:32:51;;;;;;;3.28;1.60;;;;;;;;;;5056017;28;20454;-82
2023/05/03 10:35:18;;;;;;;4.63;1.60;;;;;;;;;;5072834;28;20519;-82
2023/05/03 10:37:50;;;;;;;3.45;1.50;;;;;;;;;;5058556;28;20444;-82
2023/05/03 10:40:18;;;;;;;4.88;2.03;;;;;;;;;;5065449;28;20427;-81
2023/05/03 10:42:45;;;;;;;4.03;1.30;;;;;;;;;;5048970;28;20452;-81
2023/05/03 10:45:32;;;;;;;4.25;1.60;;;;;;;;;;5068266;28;20410;-82
2023/05/03 10:48:10;;;;;;;3.58;1.60;;;;;;;;;;5073333;28;20406;-82
2023/05/03 10:50:38;;;;;;;3.73;1.43;;;;;;;;;;5046508;28;20502;-82
2023/05/03 10:53:05;;;;;;;4.50;1.50;;;;;;;;;;5062398;28;20494;-81
2023/05/03 10:55:38;;;;;;;5.13;1.50;;;;;;;;;;5062510;28;20482;-81
2023/05/03 10:58:14;;;;;;;3.83;1.70;;;;;;;;;;5088489;28;20408;-81
2023/05/03 11:00:43;;;;;;;5.38;1.85;;;;;;;;;;5048173;28;20910;-82
2023/05/03 11:03:24;;;;;;;6.95;2.00;;;;;;;;;;5060821;28;20415;-82
2023/05/03 11:05:52;;;;;;;3.83;1.50;;;;;;;;;;5075229;28;20440;-81
2023/05/03 11:08:22;;;;;;;9.18;2.00;;;;;;;;;;5059041;28;20436;-81
2023/05/03 11:10:50;;;;;;;5.13;1.80;;;;;;;;;;5054173;28;20439;-81
2023/05/03 11:13:21;;;;;;;4.35;1.55;;;;;;;;;;5069998;28;20430;-82
2023/05/03 11:15:48;;;;;;;3.58;1.50;;;;;;;;;;5058890;28;20410;-82
2023/05/03 11:18:14;;;;;;;6.70;1.88;;;;;;;;;;5053332;28;20430;-81
2023/05/03 11:20:41;;;;;;;5.17;1.80;;;;;;;;;;5054867;28;20428;-82
2023/05/03 11:23:08;;;;;;;3.58;1.70;;;;;;;;;;5060515;28;20418;-81
2023/05/03 11:25:38;;;;;;;4.57;1.83;;;;;;;;;;5058230;28;20413;-81
2023/05/03 11:28:11;;;;;;;3.50;1.88;;;;;;;;;;5063675;28;20419;-79
2023/05/03 11:30:56;;;;;;;6.25;2.00;;;;;;;;;;5020150;28;20822;-81
2023/05/03 11:33:41;;;;;;;5.30;2.00;;;;;;;;;;5017725;28;20497;-81
2023/05/03 11:36:09;;;;;;;4.82;2.00;;;;;;;;;;5004000;28;20433;-80
2023/05/03 11:38:40;;;;;;;4.23;1.80;;;;;;;;;;5000493;28;20434;-81
2023/05/03 11:41:27;;;;;;;5.13;1.88;;;;;;;;;;5039602;28;20457;-80
2023/05/03 11:43:53;;;;;;;5.20;2.00;;;;;;;;;;5018609;28;20430;-80
2023/05/03 11:46:28;;;;;;;5.15;2.00;;;;;;;;;;4992973;28;20501;-80
2023/05/03 11:49:12;;;;;;;4.85;1.83;;;;;;;;;;4995843;28;20422;-80
2023/05/03 11:51:42;;;;;;;4.33;2.10;;;;;;;;;;4998489;28;20444;-80
2023/05/03 11:54:11;;;;;;;5.80;2.23;;;;;;;;;;4981480;28;20418;-79
2023/05/03 11:56:59;;;;;;;6.45;2.00;;;;;;;;;;4993250;28;20417;-81
2023/05/03 11:59:38;;;;;;;4.30;1.83;;;;;;;;;;4981546;28;20430;-81
2023/05/03 12:02:06;;;;;;;5.25;2.20;;;;;;;;;;4996424;28;20417;-81
2023/05/03 12:04:38;;;;;;;5.20;2.00;;;;;;;;;;5023157;28;20507;-80
2023/05/03 12:07:18;;;;;;;4.25;2.08;;;;;;;;;;5018080;28;20403;-80
2023/05/03 12:09:48;;;;;;;5.45;2.17;;;;;;;;;;5057117;28;20446;-80
2023/05/03 12:12:20;;;;;;;7.80;2.10;;;;;;;;;;5023949;28;20499;-80
2023/05/03 12:15:00;;;;;;;6.60;2.10;;;;;;;;;;5023825;28;20564;-80
2023/05/03 12:17:35;;;;;;;4.93;2.10;;;;;;;;;;5042546;28;20491;-80
2023/05/03 12:20:18;;;;;;;5.20;2.10;;;;;;;;;;5044762;28;20496;-79
2023/05/03 12:22:44;;;;;;;6.30;1.88;;;;;;;;;;5060486;28;20897;-81
2023/05/03 12:25:11;;;;;;;4.40;1.90;;;;;;;;;;5064731;28;20423;-79
2023/05/03 12:27:37;;;;;;;5.30;1.97;;;;;;;;;;5065368;28;20426;-79
2023/05/03 12:30:09;;;;;;;5.25;2.10;;;;;;;;;;5096738;28;20924;-79
2023/05/03 12:32:55;;;;;;;4.60;1.80;;;;;;;;;;4927290;29;20435;-79
2023/05/03 12:35:22;;;;;;;4.30;2.00;;;;;;;;;;4900650;29;20428;-80
2023/05/03 12:37:57;;;;;;;5.95;1.95;;;;;;;;;;4933569;29;20431;-79
2023/05/03 12:40:35;;;;;;;4.55;1.80;;;;;;;;;;4914099;29;20989;-80
2023/05/03 12:43:22;;;;;;;4.05;2.05;;;;;;;;;;4922842;29;20419;-80
2023/05/03 12:45:59;;;;;;;4.38;1.98;;;;;;;;;;4921195;29;20437;-81
2023/05/03 12:48:55;;;;;;;5.07;1.90;;;14.70;99.90;;;;;;4910830;29;20556;-81
2023/05/03 12:51:46;;;;;;;5.03;2.33;;;;;;;;;;4933342;29;20428;-81
2023/05/03 12:54:26;;;;;;;5.63;2.20;;;;;;;;;;4890136;29;20429;-81
2023/05/03 12:56:53;;;;;;;5.03;2.10;;;;;;;;;;4898221;29;20439;-80
2023/05/03 12:59:37;;;;;;;4.53;1.88;;;;;;;;;;4914142;29;20445;-80
2023/05/03 13:02:10;;;;;;;3.15;1.60;;;;;;;;;;4900013;29;20436;-80
2023/05/03 13:08:43;;;;;;;4.60;1.90;;;;;;;;;;4982351;28;20404;-80
2023/05/03 13:11:12;;;;;;;4.50;1.90;;;;;;;;;;5045986;28;20420;-80
2023/05/03 13:28:40;;;;;;;6.45;2.05;;;;;;;;;;4995425;28;20395;-80
2023/05/03 13:35:20;;;;;;;;;;;;;;;;;;;;;
2023/05/03 13:52:41;;;;;;;;;;;;;;;;;;;;;
2023/05/03 13:55:17;;;;;;;4.33;2.00;;;;;;;;;;5941513;23;5968428;-81
2023/05/03 13:57:59;;;;;;;4.53;2.25;;;;;;;;;;6221656;23;20371;-81
2023/05/03 14:00:28;;;;;;;5.80;2.80;;;;;;;;;;6222042;23;20718;-81
2023/05/03 14:02:55;;;;;;;6.03;2.60;;;;;;;;;;6222164;23;20833;-79
2023/05/03 14:05:45;;;;;;;6.00;2.57;;;;;;;;;;6196960;23;20827;-80
2023/05/03 14:08:18;;;;;;;5.32;2.60;;;;;;;;;;6194319;23;20413;-82
2023/05/03 14:10:47;;;;;;;4.78;2.33;;;;;;;;;;6218008;23;20450;-82
2023/05/03 14:13:23;;;;;;;5.70;2.58;;;;;;;;;;6190934;23;20382;-81
2023/05/03 14:15:52;;;;;;;4.57;2.50;;;;;;;;;;6189257;23;20381;-81
2023/05/03 14:18:21;;;;;;;7.03;2.70;;;;;;;;;;6189234;23;20368;-81
2023/05/03 14:21:20;;;;;;;6.53;2.37;;;;;;;;;;6188685;23;20504;-81
2023/05/03 14:23:46;;;;;;;4.90;2.70;;;;;;;;;;6149946;23;20806;-79
2023/05/03 14:26:13;;;;;;;4.35;2.42;;;;;;;;;;6190187;23;20827;-80
2023/05/03 14:28:40;;;;;;;6.95;2.63;;;;;;;;;;6190807;23;20372;-79
2023/05/03 14:31:07;;;;;;;5.55;2.33;;;;;;;;;;6191214;23;20838;-80
2023/05/03 14:33:33;;;;;;;5.65;2.67;;;;;;;;;;6190633;23;20377;-79
2023/05/03 14:36:00;;;;;;;5.75;2.35;;;;;;;;;;6191336;23;20866;-80
2023/05/03 14:38:26;;;;;;;5.75;2.70;;;;;;;;;;6190567;23;20683;-80
2023/05/03 14:40:52;;;;;;;7.50;2.40;;;;;;;;;;6189909;23;20396;-80
2023/05/03 14:43:19;;;;;;;5.53;2.42;;;;;;;;;;6188304;23;20365;-79
2023/05/03 14:45:46;;;;;;;6.00;2.40;;;;;;;;;;6189661;23;20719;-80
2023/05/03 14:48:13;;;;;;;4.60;2.28;;;;;;;;;;6187778;23;20368;-79
2023/05/03 14:50:39;;;;;;;6.30;2.50;;;;;;;;;;6160475;23;20427;-75
2023/05/03 14:53:05;;;;;;;5.82;2.22;;;;;;;;;;6186088;23;20423;-78
2023/05/03 14:55:32;;;;;;;7.45;2.60;;;;;;;;;;6217783;23;20389;-79
2023/05/03 14:57:58;;;;;;;8.27;2.80;;;;;;;;;;6190616;23;20372;-79
2023/05/03 15:00:24;;;;;;;6.68;2.65;;;;;;;;;;6216009;23;20392;-79
2023/05/03 15:02:58;;;;;;;10.07;2.83;;;;;;;;;;6215493;23;20444;-78
2023/05/03 15:05:24;;;;;;;5.80;2.67;;;;;;;;;;6190765;23;20377;-78
2023/05/03 15:07:51;;;;;;;6.53;2.50;;;;;;;;;;6191668;23;20704;-79
2023/05/03 15:10:25;;;;;;;5.53;2.55;;;;;;;;;;6216680;23;20374;-79
2023/05/03 15:16:11;;;;;;;5.63;2.90;;;;;;;;;;6235349;23;20384;-78
2023/05/03 15:18:42;;;;;;;7.40;2.85;;;;;;;;;;6166998;23;20376;-79
2023/05/03 15:21:14;;;;;;;4.57;2.60;;;;;;;;;;6168212;23;20912;-79
2023/05/03 15:23:44;;;;;;;4.40;2.63;;;;;;;;;;6215277;23;20369;-79
2023/05/03 15:26:18;;;;;;;6.32;2.50;;;;;;;;;;6190145;23;20358;-80
2023/05/03 15:28:44;;;;;;;5.82;2.50;;;;;;;;;;6190871;23;20478;-76
2023/05/03 15:31:14;;;;;;;6.90;2.33;;;;;;;;;;6216938;23;20416;-79
2023/05/03 15:33:41;;;;;;;7.53;2.33;;;;;;;;;;6216946;23;20704;-80
2023/05/03 15:36:11;;;;;;;5.80;2.35;;;;;;;;;;6188425;23;20394;-78
2023/05/03 15:38:40;;;;;;;5.13;2.35;;;;;;;;;;6189993;23;20400;-78
2023/05/03 15:41:06;;;;;;;5.13;2.50;;;;;;;;;;6188289;23;21248;-79
2023/05/03 15:43:33;;;;;;;7.47;2.55;;;;;;;;;;6190190;23;20847;-80
2023/05/03 15:46:03;;;;;;;4.43;2.40;;;;;;;;;;6214339;23;20362;-80
2023/05/03 15:48:29;;;;;;;5.07;2.20;;;;;;;;;;6184605;23;20381;-80
2023/05/03 15:50:58;;;;;;;5.38;2.30;;;;;;;;;;6186488;23;20377;-80
2023/05/03 15:53:34;;;;;;;4.53;2.45;;;;;;;;;;6164735;23;20388;-80
2023/05/03 15:56:04;;;;;;;4.60;2.53;;;;;;;;;;6164774;23;20731;-79
2023/05/03 15:58:30;;;;;;;6.15;2.40;;;;;;;;;;6189614;23;20443;-80
2023/05/03 16:00:58;;;;;;;5.53;2.42;;;;;;;;;;6192868;23;20414;-80
2023/05/03 16:03:25;;;;;;;6.78;2.67;;;;;;;;;;6216597;23;20858;-80
2023/05/03 16:05:57;;;;;;;5.35;2.95;;;;;;;;;;6169694;23;20452;-80
2023/05/03 16:08:24;;;;;;;6.03;2.42;;;;;;;;;;6192307;23;20939;-80
2023/05/03 16:10:50;;;;;;;6.60;2.63;;;;;;;;;;6191244;22;20804;-80
2023/05/03 16:13:19;;;;;;;5.15;2.60;;;;;;;;;;6191950;23;20453;-80
2023/05/03 16:15:51;;;;;;;6.57;3.13;;;;;;;;;;6197274;23;20519;-80
2023/05/03 16:18:35;;;;;;;5.25;3.10;;;;;;;;;;6197424;23;20365;-81
2023/05/03 16:21:11;;;;;;;5.05;2.55;;;;;;;;;;6201798;23;20386;-83
2023/05/03 16:23:37;;;;;;;7.10;2.80;;;;;;;;;;6202109;23;20370;-83
2023/05/03 16:26:18;;;;;;;6.05;2.80;;;;;;;;;;6200221;23;20368;-81
2023/05/03 16:28:44;;;;;;;6.15;2.90;;;;;;;;;;6176436;23;20362;-83
2023/05/03 16:31:15;;;;;;;5.18;3.00;;;;;;;;;;6222689;23;20384;-82
2023/05/03 16:37:11;;;;;;;6.13;2.60;;;;;;;;;;6214406;23;20369;-79
2023/05/03 16:39:38;;;;;;;6.00;2.90;;;;;;;;;;6201793;23;20366;-82
2023/05/03 16:42:04;;;;;;;5.53;2.90;;;;;;;;;;6203528;23;20389;-81
2023/05/03 16:44:42;;;;;;;6.35;2.63;;;;;;;;;;6204802;23;20369;-82
2023/05/03 16:47:08;;;;;;;7.55;3.10;;;;;;;;;;6229766;23;20358;-82
2023/05/03 16:49:43;;;;;;;4.82;2.78;;;;;;;;;;6197690;23;20445;-81
2023/05/03 16:52:09;;;;;;;4.88;2.70;;;;;;;;;;6218315;23;20767;-82
2023/05/03 16:57:39;;;;;;;6.88;3.03;;;;;;;;;;6204718;23;21123;-81
2023/05/03 17:00:08;;;;;;;5.63;2.80;;;;;;;;;;6168933;23;20432;-79
2023/05/03 17:02:35;;;;;;;5.07;2.78;;;;;;;;;;6190657;23;20362;-82
2023/05/03 17:05:13;;;;;;;5.43;2.80;;;;;;;;;;6194062;23;20370;-83
2023/05/03 17:07:42;;;;;;;4.90;2.50;;;;;;;;;;6192876;23;20864;-80
2023/05/03 17:10:12;;;;;;;6.05;2.90;;;;;;;;;;6193027;23;20369;-81
2023/05/03 17:13:00;;;;;;;7.35;2.70;;;;;;;;;;6192990;23;20374;-81
2023/05/03 17:15:27;;;;;;;8.60;2.70;;;;;;;;;;6191865;23;20473;-78
2023/05/03 17:17:53;;;;;;;5.63;2.50;;;;;;;;;;6218159;23;20377;-84
2023/05/03 17:20:19;;;;;;;6.63;2.58;;;;;;;;;;6193243;23;20481;-86
2023/05/03 17:22:45;;;;;;;4.40;2.50;;;;;;;;;;6217280;23;20837;-86
2023/05/03 17:25:12;;;;;;;6.00;2.90;;;;;;;;;;6167701;23;20366;-87
2023/05/03 17:27:38;;;;;;;6.22;3.13;;;;;;;;;;6194256;23;20366;-86
2023/05/03 17:30:05;;;;;;;6.15;2.50;;;;;;;;;;6194523;23;20397;-85
2023/05/03 17:32:31;;;;;;;6.85;2.42;;;;;;;;;;6194582;23;20452;-85
2023/05/03 17:34:58;;;;;;;5.18;2.67;;;;;;;;;;6193191;23;20433;-85
2023/05/03 17:37:24;;;;;;;6.87;2.40;;;;;;;;;;6195896;23;20366;-85
2023/05/03 17:39:50;;;;;;;5.38;2.50;;;;;;;;;;6195536;23;20426;-85
2023/05/03 17:42:19;;;;;;;7.55;2.80;;;;;;;;;;6219301;23;20362;-84
2023/05/03 17:44:46;;;;;;;4.55;2.85;;;;;;;;;;6169380;23;20366;-83
2023/05/03 17:47:15;;;;;;;6.57;2.85;;;;;;;;;;6193272;23;20400;-84
2023/05/03 17:49:41;;;;;;;6.00;2.92;;;;;;;;;;6192730;23;20377;-84
2023/05/03 17:52:09;;;;;;;6.35;2.72;;;;;;;;;;6217658;23;20756;-84
2023/05/03 17:54:38;;;;;;;5.25;2.78;;;;;;;;;;6218310;23;20377;-84
2023/05/03 17:57:04;;;;;;;5.78;2.83;;;;;;;;;;6217763;23;20524;-82
2023/05/03 17:59:33;;;;;;;7.90;2.95;;;;;;;;;;6193574;23;20366;-83
2023/05/03 18:01:59;;;;;;;4.53;2.80;;;;;;;;;;6192900;23;20362;-84
2023/05/03 18:04:26;;;;;;;4.40;2.70;;;;;;;;;;6192434;23;20362;-84
2023/05/03 18:06:52;;;;;;;4.90;3.20;;;;;;;;;;6193915;23;20400;-84
2023/05/03 18:09:27;;;;;;;5.70;3.10;;;;;;;;;;6192598;23;20366;-83
2023/05/03 18:12:06;;;;;;;7.35;3.20;;;;;;;;;;6198184;23;20354;-83
2023/05/03 18:14:38;;;;;;;6.10;3.40;;;;;;;;;;6217033;23;20423;-84
2023/05/03 18:17:07;;;;;;;6.28;3.10;;;;;;;;;;6167456;23;20366;-82
2023/05/03 18:19:34;;;;;;;7.35;2.80;;;;;;;;;;6190843;23;20368;-82
2023/05/03 18:22:06;;;;;;;5.90;2.88;;;;;;;;;;6217956;23;20368;-80
2023/05/03 18:24:33;;;;;;;5.93;2.60;;;;;;;;;;6193309;23;20362;-83
2023/05/03 18:26:59;;;;;;;5.32;2.63;;;;;;;;;;6193854;23;20362;-82
2023/05/03 18:29:25;;;;;;;5.50;2.90;;;;;;;;;;6195388;23;20715;-83
2023/05/03 18:31:53;;;;;;;6.32;2.70;;;;;;;;;;6219778;23;20451;-82